MV Causeway Supplier — ZR2426 — position and weather

sailwx.info

Track history (hours):
 
Tides and Currents Weather Stations Pressure Air Temp Water Temp Dewpoint Dewpoint Depression Visibility Wind Speed Wind Dir Waves Ship Positions

MV Causeway Supplier

Last reported at 2015-Aug-03 12:33 UTC. Time now 2015-Aug-04 23:59 UTC.
Position S 29°54' E 031°00'.

Length 22 m; draft 2.7 m.

Type: . MMSI: 601041200.

Date/timePositionNaut miles runAvg speedWind from/ knotsBaromVisibWave heightAir tempDewpointWater temp
2015-Aug-03 12:33S 29°54' E 031°00'4 4.0
2015-Aug-03 11:33S 29°52' E 031°04'3 3.5
2015-Aug-03 10:33S 29°53' E 031°08'5 5.3
2015-Aug-03 09:34S 29°52' E 031°02'2 2.2
2015-Aug-03 08:33S 29°54' E 031°00'0 0.0
2015-Aug-03 07:33S 29°54' E 031°00'0 0.0
2015-Aug-03 06:33S 29°54' E 031°00'0 0.0
2015-Aug-02 11:33S 29°54' E 031°00'2 1.9
2015-Aug-02 10:32S 29°52' E 031°01'3 2.8
2015-Aug-02 09:33S 29°52' E 031°04'4 4.4
2015-Aug-02 08:33S 29°51' E 031°09'2 2.2
2015-Aug-02 07:33S 29°52' E 031°07'5 5.4
2015-Aug-02 06:33S 29°53' E 031°00'1 0.9
2015-Aug-02 05:33S 29°54' E 031°00'0 0.0
2015-Aug-02 04:34S 29°54' E 031°00'0 0.0
2015-Aug-02 03:33S 29°54' E 031°00'0 0.0
2015-Aug-01 20:33S 29°54' E 031°00'4 3.9
2015-Aug-01 19:34S 29°52' E 031°04'5 4.6
2015-Aug-01 18:33S 29°50' E 031°09'0 0.5
2015-Aug-01 17:34S 29°50' E 031°09'4 3.6
2015-Aug-01 16:33S 29°51' E 031°05'5 5.0
2015-Aug-01 15:33S 29°54' E 031°00'0 0.4
2015-Aug-01 14:33S 29°54' E 031°00'0 0.0
2015-Aug-01 13:33S 29°54' E 031°00'0 0.0
2015-Aug-01 12:33S 29°54' E 031°00'0 0.0
2015-Aug-01 11:33S 29°54' E 031°00'4 4.2
2015-Aug-01 10:32S 29°53' E 031°05'1 1.4
2015-Aug-01 09:33S 29°53' E 031°07'1 1.0
2015-Aug-01 08:33S 29°52' E 031°06'4 4.4
2015-Aug-01 07:33S 29°52' E 031°01'2 2.0
2015-Aug-01 06:33S 29°54' E 031°00'0 0.0
2015-Aug-01 05:33S 29°54' E 031°00'0 0.0
2015-Jul-30 18:22S 29°54' E 031°00'0 0.0
2015-Jul-30 16:33S 29°54' E 031°00'5 5.2
2015-Jul-30 15:33S 29°52' E 031°06'6 6.3
2015-Jul-30 14:34S 29°54' E 031°13'1 0.9
2015-Jul-30 13:33S 29°53' E 031°13'8 8.0
2015-Jul-30 12:33S 29°52' E 031°04'4 3.9
2015-Jul-30 11:33S 29°54' E 031°00'0 0.0
2015-Jul-30 10:33S 29°54' E 031°00'0 0.0
2015-Jul-30 09:33S 29°54' E 031°00'0 0.0
2015-Jul-29 23:33S 29°54' E 031°00'4 3.8
2015-Jul-29 22:34S 29°52' E 031°04'4 4.4
2015-Jul-29 21:33S 29°51' E 031°09'1 0.8
2015-Jul-29 20:33S 29°51' E 031°09'7 6.9
2015-Jul-29 19:33S 29°52' E 031°01'2 2.1
2015-Jul-29 18:33S 29°54' E 031°00'0 0.0
2015-Jul-29 16:13S 29°54' E 031°00'2 3.6
2015-Jul-29 15:34S 29°53' E 031°02'9 9.1
2015-Jul-29 14:34S 29°45' E 031°09'4 3.6
2015-Jul-29 13:33S 29°43' E 031°12'0 0.0
2015-Jul-29 12:33S 29°43' E 031°12'0 0.0
2015-Jul-29 11:34S 29°43' E 031°12'2 2.1
2015-Jul-29 10:33S 29°45' E 031°11'8 7.8
2015-Jul-29 09:33S 29°51' E 031°05'5 4.4
2015-Jul-29 08:21S 29°54' E 031°00'2 2.4
2015-Jul-29 07:31S 29°52' E 031°01'2 2.1
2015-Jul-29 06:33S 29°54' E 031°00'0 0.0
2015-Jul-29 05:33S 29°54' E 031°00'0 0.0
2015-Jul-29 04:33S 29°54' E 031°00'0 0.0
2015-Jul-29 03:33S 29°54' E 031°00'0 0.0
2015-Jul-28 19:10S 29°54' E 031°00'3 4.9
2015-Jul-28 18:33S 29°52' E 031°03'8 8.3
2015-Jul-28 17:33S 29°47' E 031°10'3 2.6
2015-Jul-28 16:33S 29°45' E 031°13'0 0.0
2015-Jul-28 15:33S 29°45' E 031°13'0 0.0
2015-Jul-28 14:34S 29°45' E 031°13'7 7.2
2015-Jul-28 13:33S 29°50' E 031°06'5 5.3
2015-Jul-28 12:33S 29°52' E 031°01'2 1.9
2015-Jul-28 11:33S 29°54' E 031°00'0 0.0
2015-Jul-28 10:33S 29°54' E 031°00'0 0.0
2015-Jul-28 09:33S 29°54' E 031°00'0 0.0
2015-Jul-28 08:33S 29°54' E 031°00'0 0.0
2015-Jul-28 07:29S 29°54' E 031°00'0 0.0
2015-Jul-28 06:33S 29°54' E 031°00'0 0.0
2015-Jul-28 05:33S 29°54' E 031°00'0 0.0
2015-Jul-28 04:33S 29°54' E 031°00'0 0.0
2015-Jul-28 03:33S 29°54' E 031°00'0 0.0
2015-Jul-28 02:33S 29°54' E 031°00'0 0.0
2015-Jul-28 01:33S 29°54' E 031°00'0 0.0
2015-Jul-28 00:33S 29°54' E 031°00'0 0.0
2015-Jul-27 23:33S 29°54' E 031°00'0 0.0
2015-Jul-27 22:33S 29°54' E 031°00'0 0.0
2015-Jul-27 21:33S 29°54' E 031°00'0 0.0
2015-Jul-27 20:33S 29°54' E 031°00'0 0.0
2015-Jul-27 19:33S 29°54' E 031°00'0 0.0
2015-Jul-27 18:33S 29°54' E 031°00'0 0.0
2015-Jul-27 17:33S 29°54' E 031°00'0 0.0
2015-Jul-27 16:33S 29°54' E 031°00'0 0.0
2015-Jul-27 13:33S 29°54' E 031°00'0 0.0
2015-Jul-27 12:33S 29°54' E 031°00'2 2.2
2015-Jul-27 11:33S 29°52' E 031°02'8 8.0
2015-Jul-27 10:33S 29°45' E 031°07'0 0.1
2015-Jul-27 09:33S 29°45' E 031°07'0 0.0
2015-Jul-27 08:34S 29°45' E 031°07'4 3.7
2015-Jul-27 07:33S 29°49' E 031°05'7 6.7
2015-Jul-27 06:33S 29°54' E 031°00'0 0.0
2015-Jul-27 05:33S 29°54' E 031°00'0 0.0
2015-Jul-27 04:33S 29°54' E 031°00'0 0.0
2015-Jul-26 07:33S 29°54' E 031°00'0 0.0
2015-Jul-26 06:33S 29°54' E 031°00'0 0.0
2015-Jul-26 05:33S 29°54' E 031°00'0 0.0
2015-Jul-25 17:32S 29°54' E 031°00'7 6.7
2015-Jul-25 16:34S 29°49' E 031°06'7 7.2
2015-Jul-25 15:33S 29°43' E 031°11'2 1.9
2015-Jul-25 14:34S 29°42' E 031°12'0 0.0
2015-Jul-25 13:33S 29°42' E 031°12'3 3.1
2015-Jul-25 12:34S 29°44' E 031°10'13 5.4
2015-Jul-25 10:10S 29°54' E 031°00'0 0.0
2015-Jul-25 09:34S 29°54' E 031°00'0 0.0
2015-Jul-25 08:33S 29°54' E 031°00'0 0.0
2015-Jul-25 07:34S 29°54' E 031°00'0 0.0
2015-Jul-25 06:34S 29°54' E 031°00'0 0.0
2015-Jul-25 05:34S 29°54' E 031°00'0 0.0
2015-Jul-25 04:33S 29°54' E 031°00'  
Track history (hours):
 
Tides and Currents Weather Stations Pressure Air Temp Water Temp Dewpoint Dewpoint Depression Visibility Wind Speed Wind Dir Waves Ship Positions

MV Causeway Supplier

Last reported at 2015-Aug-03 12:33 UTC. Time now 2015-Aug-04 23:59 UTC.
Position S 29°54' E 031°00'.

Length 22 m; draft 2.7 m.

Type: . MMSI: 601041200.

Date/timePositionNaut miles runAvg speedWind from/ knotsBaromVisibWave heightAir tempDewpointWater temp
2015-Aug-03 12:33S 29°54' E 031°00'4 4.0
2015-Aug-03 11:33S 29°52' E 031°04'3 3.5
2015-Aug-03 10:33S 29°53' E 031°08'5 5.3
2015-Aug-03 09:34S 29°52' E 031°02'2 2.2
2015-Aug-03 08:33S 29°54' E 031°00'0 0.0
2015-Aug-03 07:33S 29°54' E 031°00'0 0.0
2015-Aug-03 06:33S 29°54' E 031°00'0 0.0
2015-Aug-02 11:33S 29°54' E 031°00'2 1.9
2015-Aug-02 10:32S 29°52' E 031°01'3 2.8
2015-Aug-02 09:33S 29°52' E 031°04'4 4.4
2015-Aug-02 08:33S 29°51' E 031°09'2 2.2
2015-Aug-02 07:33S 29°52' E 031°07'5 5.4
2015-Aug-02 06:33S 29°53' E 031°00'1 0.9
2015-Aug-02 05:33S 29°54' E 031°00'0 0.0
2015-Aug-02 04:34S 29°54' E 031°00'0 0.0
2015-Aug-02 03:33S 29°54' E 031°00'0 0.0
2015-Aug-01 20:33S 29°54' E 031°00'4 3.9
2015-Aug-01 19:34S 29°52' E 031°04'5 4.6
2015-Aug-01 18:33S 29°50' E 031°09'0 0.5
2015-Aug-01 17:34S 29°50' E 031°09'4 3.6
2015-Aug-01 16:33S 29°51' E 031°05'5 5.0
2015-Aug-01 15:33S 29°54' E 031°00'0 0.4
2015-Aug-01 14:33S 29°54' E 031°00'0 0.0
2015-Aug-01 13:33S 29°54' E 031°00'0 0.0
2015-Aug-01 12:33S 29°54' E 031°00'0 0.0
2015-Aug-01 11:33S 29°54' E 031°00'4 4.2
2015-Aug-01 10:32S 29°53' E 031°05'1 1.4
2015-Aug-01 09:33S 29°53' E 031°07'1 1.0
2015-Aug-01 08:33S 29°52' E 031°06'4 4.4
2015-Aug-01 07:33S 29°52' E 031°01'2 2.0
2015-Aug-01 06:33S 29°54' E 031°00'0 0.0
2015-Aug-01 05:33S 29°54' E 031°00'0 0.0
2015-Jul-30 18:22S 29°54' E 031°00'0 0.0
2015-Jul-30 16:33S 29°54' E 031°00'5 5.2
2015-Jul-30 15:33S 29°52' E 031°06'6 6.3
2015-Jul-30 14:34S 29°54' E 031°13'1 0.9
2015-Jul-30 13:33S 29°53' E 031°13'8 8.0
2015-Jul-30 12:33S 29°52' E 031°04'4 3.9
2015-Jul-30 11:33S 29°54' E 031°00'0 0.0
2015-Jul-30 10:33S 29°54' E 031°00'0 0.0
2015-Jul-30 09:33S 29°54' E 031°00'0 0.0
2015-Jul-29 23:33S 29°54' E 031°00'4 3.8
2015-Jul-29 22:34S 29°52' E 031°04'4 4.4
2015-Jul-29 21:33S 29°51' E 031°09'1 0.8
2015-Jul-29 20:33S 29°51' E 031°09'7 6.9
2015-Jul-29 19:33S 29°52' E 031°01'2 2.1
2015-Jul-29 18:33S 29°54' E 031°00'0 0.0
2015-Jul-29 16:13S 29°54' E 031°00'2 3.6
2015-Jul-29 15:34S 29°53' E 031°02'9 9.1
2015-Jul-29 14:34S 29°45' E 031°09'4 3.6
2015-Jul-29 13:33S 29°43' E 031°12'0 0.0
2015-Jul-29 12:33S 29°43' E 031°12'0 0.0
2015-Jul-29 11:34S 29°43' E 031°12'2 2.1
2015-Jul-29 10:33S 29°45' E 031°11'8 7.8
2015-Jul-29 09:33S 29°51' E 031°05'5 4.4
2015-Jul-29 08:21S 29°54' E 031°00'2 2.4
2015-Jul-29 07:31S 29°52' E 031°01'2 2.1
2015-Jul-29 06:33S 29°54' E 031°00'0 0.0
2015-Jul-29 05:33S 29°54' E 031°00'0 0.0
2015-Jul-29 04:33S 29°54' E 031°00'0 0.0
2015-Jul-29 03:33S 29°54' E 031°00'0 0.0
2015-Jul-28 19:10S 29°54' E 031°00'3 4.9
2015-Jul-28 18:33S 29°52' E 031°03'8 8.3
2015-Jul-28 17:33S 29°47' E 031°10'3 2.6
2015-Jul-28 16:33S 29°45' E 031°13'0 0.0
2015-Jul-28 15:33S 29°45' E 031°13'0 0.0
2015-Jul-28 14:34S 29°45' E 031°13'7 7.2
2015-Jul-28 13:33S 29°50' E 031°06'5 5.3
2015-Jul-28 12:33S 29°52' E 031°01'2 1.9
2015-Jul-28 11:33S 29°54' E 031°00'0 0.0
2015-Jul-28 10:33S 29°54' E 031°00'0 0.0
2015-Jul-28 09:33S 29°54' E 031°00'0 0.0
2015-Jul-28 08:33S 29°54' E 031°00'0 0.0
2015-Jul-28 07:29S 29°54' E 031°00'0 0.0
2015-Jul-28 06:33S 29°54' E 031°00'0 0.0
2015-Jul-28 05:33S 29°54' E 031°00'0 0.0
2015-Jul-28 04:33S 29°54' E 031°00'0 0.0
2015-Jul-28 03:33S 29°54' E 031°00'0 0.0
2015-Jul-28 02:33S 29°54' E 031°00'0 0.0
2015-Jul-28 01:33S 29°54' E 031°00'0 0.0
2015-Jul-28 00:33S 29°54' E 031°00'0 0.0
2015-Jul-27 23:33S 29°54' E 031°00'0 0.0
2015-Jul-27 22:33S 29°54' E 031°00'0 0.0
2015-Jul-27 21:33S 29°54' E 031°00'0 0.0
2015-Jul-27 20:33S 29°54' E 031°00'0 0.0
2015-Jul-27 19:33S 29°54' E 031°00'0 0.0
2015-Jul-27 18:33S 29°54' E 031°00'0 0.0
2015-Jul-27 17:33S 29°54' E 031°00'0 0.0
2015-Jul-27 16:33S 29°54' E 031°00'0 0.0
2015-Jul-27 13:33S 29°54' E 031°00'0 0.0
2015-Jul-27 12:33S 29°54' E 031°00'2 2.2
2015-Jul-27 11:33S 29°52' E 031°02'8 8.0
2015-Jul-27 10:33S 29°45' E 031°07'0 0.1
2015-Jul-27 09:33S 29°45' E 031°07'0 0.0
2015-Jul-27 08:34S 29°45' E 031°07'4 3.7
2015-Jul-27 07:33S 29°49' E 031°05'7 6.7
2015-Jul-27 06:33S 29°54' E 031°00'0 0.0
2015-Jul-27 05:33S 29°54' E 031°00'0 0.0
2015-Jul-27 04:33S 29°54' E 031°00'0 0.0
2015-Jul-26 07:33S 29°54' E 031°00'0 0.0
2015-Jul-26 06:33S 29°54' E 031°00'0 0.0
2015-Jul-26 05:33S 29°54' E 031°00'0 0.0
2015-Jul-25 17:32S 29°54' E 031°00'7 6.7
2015-Jul-25 16:34S 29°49' E 031°06'7 7.2
2015-Jul-25 15:33S 29°43' E 031°11'2 1.9
2015-Jul-25 14:34S 29°42' E 031°12'0 0.0
2015-Jul-25 13:33S 29°42' E 031°12'3 3.1
2015-Jul-25 12:34S 29°44' E 031°10'13 5.4
2015-Jul-25 10:10S 29°54' E 031°00'0 0.0
2015-Jul-25 09:34S 29°54' E 031°00'0 0.0
2015-Jul-25 08:33S 29°54' E 031°00'0 0.0
2015-Jul-25 07:34S 29°54' E 031°00'0 0.0
2015-Jul-25 06:34S 29°54' E 031°00'0 0.0
2015-Jul-25 05:34S 29°54' E 031°00'0 0.0
2015-Jul-25 04:33S 29°54' E 031°00'  

Dump ship's entire track history